Time;durP1;ratioP1;P1;durP2;ratioP2;P2;SDS_P1;SDS_P2;PMS_P1;PMS_P2;Temp;Humidity;BMP_temperature;BMP_pressure;BME280_temperature;BME280_humidity;BME280_pressure;Samples;Min_cycle;Max_cycle;Signal;HPM_P1;HPM_P2
2023/04/17 00:00:27;;;;;;;67.00;41.72;;;;;;;8.90;100.00;-18267.59;4984918;28;20102;-88
2023/04/17 00:02:52;;;;;;;74.15;44.63;;;;;;;8.96;100.00;-18269.25;4996752;28;20053;-87
2023/04/17 00:05:21;;;;;;;64.82;41.75;;;;;;;8.92;100.00;-18268.28;4988264;28;20042;-87
2023/04/17 00:07:47;;;;;;;69.18;44.20;;;;;;;8.87;100.00;-18266.78;4982982;28;20134;-87
2023/04/17 00:10:14;;;;;;;66.43;43.03;;;;;;;8.87;100.00;-18266.78;4987040;28;20042;-87
2023/04/17 00:12:39;;;;;;;70.43;44.67;;;;;;;8.92;100.00;-18268.16;4983298;28;20042;-87
2023/04/17 00:15:06;;;;;;;63.53;41.97;;;;;;;8.91;100.00;-18267.88;4985609;28;20050;-87
2023/04/17 00:17:31;;;;;;;67.57;43.38;;;;;;;8.91;100.00;-18267.88;4984142;28;20042;-88
2023/04/17 00:19:56;;;;;;;65.53;43.63;;;;;;;8.85;100.00;-18266.34;4983872;28;20104;-87
2023/04/17 00:22:22;;;;;;;68.57;43.08;;;;;;;8.80;100.00;-18265.13;5001104;28;20081;-87
2023/04/17 00:24:47;;;;;;;70.70;43.25;;;;;;;8.86;100.00;-18266.63;4982950;28;20113;-88
2023/04/17 00:27:12;;;;;;;70.07;43.85;;;;;;;8.86;100.00;-18266.50;4983784;28;20034;-87
2023/04/17 00:29:38;;;;;;;66.75;42.88;;;;;;;8.86;100.00;-18266.63;4983406;28;20642;-87
2023/04/17 00:32:04;;;;;;;73.85;41.35;;;;;;;8.91;100.00;-18267.88;4984709;28;20112;-88
2023/04/17 00:34:29;;;;;;;67.32;43.47;;;;;;;8.95;100.00;-18268.97;4984526;28;20050;-87
2023/04/17 00:36:55;;;;;;;68.07;44.42;;;;;;;8.91;100.00;-18268.00;4983528;28;20354;-87
2023/04/17 00:39:20;;;;;;;72.50;44.30;;;;;;;8.88;100.00;-18267.03;4983767;28;20082;-88
2023/04/17 00:41:45;;;;;;;73.47;44.08;;;;;;;8.88;100.00;-18267.19;4982705;28;20058;-87
2023/04/17 00:44:11;;;;;;;68.68;44.55;;;;;;;8.91;100.00;-18267.88;4984573;28;20050;-88
2023/04/17 00:46:36;;;;;;;75.00;44.70;;;;;;;8.89;100.00;-18267.31;4983200;28;20038;-87
2023/04/17 00:49:02;;;;;;;72.65;45.90;;;;;;;8.92;100.00;-18268.16;4983651;28;20042;-88
2023/04/17 00:51:27;;;;;;;72.40;46.83;;;;;;;8.90;100.00;-18267.59;4982272;28;20038;-87
2023/04/17 00:53:54;;;;;;;73.15;44.45;;;;;;;8.90;100.00;-18267.59;4984961;28;20050;-88
2023/04/17 00:56:20;;;;;;;73.38;46.42;;;;;;;8.90;100.00;-18267.59;4986165;28;20151;-87
2023/04/17 00:58:45;;;;;;;71.03;43.80;;;;;;;8.90;100.00;-18267.59;4982304;28;20087;-87
2023/04/17 01:01:11;;;;;;;76.03;45.45;;;;;;;8.91;100.00;-18267.88;4984844;28;20522;-87
2023/04/17 01:03:36;;;;;;;68.25;45.30;;;;;;;8.83;100.00;-18265.81;4985922;28;20050;-87
2023/04/17 01:06:02;;;;;;;73.15;45.65;;;;;;;8.85;100.00;-18266.34;4988261;28;20049;-87
2023/04/17 01:08:35;;;;;;;71.53;47.35;;;;;;;8.87;100.00;-18266.78;4971082;28;20096;-87
2023/04/17 01:11:00;;;;;;;73.40;45.97;;;;;;;8.86;100.00;-18266.63;4986753;28;20128;-87
2023/04/17 01:13:25;;;;;;;71.20;45.28;;;;;;;8.88;100.00;-18267.19;4987912;28;20137;-87
2023/04/17 01:15:51;;;;;;;70.28;44.30;;;;;;;8.91;100.00;-18267.88;4988719;28;20523;-87
2023/04/17 01:18:16;;;;;;;70.00;42.55;;;;;;;8.87;100.00;-18266.91;4970818;28;20483;-88
2023/04/17 01:20:41;;;;;;;71.78;44.70;;;;;;;8.92;100.00;-18268.16;4986457;28;20419;-88
2023/04/17 01:23:07;;;;;;;76.35;46.72;;;;;;;8.81;100.00;-18265.41;4987551;28;20453;-87
2023/04/17 01:25:33;;;;;;;80.53;47.35;;;;;;;8.84;100.00;-18265.94;4986513;28;20101;-87
2023/04/17 01:27:58;;;;;;;73.15;47.05;;;;;;;8.88;100.00;-18267.19;4989407;28;20038;-87
2023/04/17 01:30:23;;;;;;;77.40;46.75;;;;;;;8.80;100.00;-18265.13;4987265;28;20085;-87
2023/04/17 01:32:49;;;;;;;72.15;45.88;;;;;;;8.83;100.00;-18265.81;4989637;28;20509;-87
2023/04/17 01:35:14;;;;;;;73.65;47.17;;;;;;;8.80;100.00;-18265.13;5007897;28;20232;-87
2023/04/17 01:37:40;;;;;;;73.55;46.90;;;;;;;8.78;100.00;-18264.56;4986464;28;20040;-87
2023/04/17 01:40:06;;;;;;;74.30;49.42;;;;;;;8.78;100.00;-18264.44;4982723;28;20457;-87
2023/04/17 01:42:33;;;;;;;77.88;49.75;;;;;;;8.78;100.00;-18264.44;4986878;28;20046;-88
2023/04/17 01:44:58;;;;;;;79.13;48.20;;;;;;;8.82;100.00;-18265.66;4991239;28;20042;-87
2023/04/17 01:47:23;;;;;;;73.82;45.78;;;;;;;8.81;100.00;-18265.25;4987034;28;20050;-87
2023/04/17 01:49:49;;;;;;;74.95;47.92;;;;;;;8.82;100.00;-18265.66;4986930;28;20059;-87
2023/04/17 01:52:14;;;;;;;76.53;46.42;;;;;;;8.90;100.00;-18267.59;4988770;28;20112;-87
2023/04/17 01:54:39;;;;;;;77.90;47.30;;;;;;;8.86;100.00;-18266.50;4986962;28;20130;-86
2023/04/17 01:57:05;;;;;;;79.68;48.08;;;;;;;8.83;100.00;-18265.81;4988112;28;20045;-87
2023/04/17 01:59:30;;;;;;;76.30;50.25;;;;;;;8.77;100.00;-18264.16;4986477;28;20046;-87
2023/04/17 02:01:56;;;;;;;79.93;48.45;;;;;;;8.76;100.00;-18264.00;4985995;28;20054;-87
2023/04/17 02:04:21;;;;;;;76.82;49.05;;;;;;;8.76;100.00;-18263.88;4988696;28;20041;-87
2023/04/17 02:06:47;;;;;;;75.82;48.00;;;;;;;8.74;100.00;-18263.47;4986765;28;20206;-87
2023/04/17 02:09:12;;;;;;;75.93;47.05;;;;;;;8.77;100.00;-18264.16;4987891;28;20042;-87
2023/04/17 02:11:38;;;;;;;77.07;49.25;;;;;;;8.77;100.00;-18264.28;4986794;28;20397;-87
2023/04/17 02:14:03;;;;;;;88.00;53.45;;;;;;;8.80;100.00;-18265.13;4987478;28;20129;-87
2023/04/17 02:16:30;;;;;;;87.53;50.70;;;;;;;8.83;100.00;-18265.81;4985012;28;20134;-88
2023/04/17 02:18:56;;;;;;;85.93;52.67;;;;;;;8.82;100.00;-18265.66;4986190;28;20129;-88
2023/04/17 02:21:21;;;;;;;85.22;52.05;;;;;;;8.76;100.00;-18264.00;4988105;28;20473;-88
2023/04/17 02:23:47;;;;;;;90.72;52.40;;;;;;;8.77;100.00;-18264.28;4983730;28;20038;-87
2023/04/17 02:26:12;;;;;;;87.70;50.13;;;;;;;8.75;100.00;-18263.59;4986674;28;20120;-87
2023/04/17 02:28:38;;;;;;;89.60;52.85;;;;;;;8.75;100.00;-18263.59;4985076;28;20042;-87
2023/04/17 02:31:07;;;;;;;88.85;51.53;;;;;;;8.79;100.00;-18264.72;4986719;28;20088;-87
2023/04/17 02:33:35;;;;;;;83.47;51.55;;;;;;;8.69;100.00;-18262.09;4984133;28;20042;-88
2023/04/17 02:36:00;;;;;;;89.53;51.53;;;;;;;8.68;100.00;-18261.81;5000758;28;20468;-88
2023/04/17 02:38:28;;;;;;;91.85;53.78;;;;;;;8.71;100.00;-18262.63;4985331;28;20205;-88
2023/04/17 02:40:54;;;;;;;90.17;51.07;;;;;;;8.70;100.00;-18262.22;4984961;28;20104;-87
2023/04/17 02:43:19;;;;;;;87.88;49.45;;;;;;;8.69;100.00;-18261.94;4988569;28;20493;-88
2023/04/17 02:45:44;;;;;;;88.88;53.10;;;;;;;8.67;100.00;-18261.53;4991663;28;20054;-88
2023/04/17 02:48:10;;;;;;;93.03;53.88;;;;;;;8.68;100.00;-18261.69;4987754;28;20048;-88
2023/04/17 02:50:35;;;;;;;90.47;52.17;;;;;;;8.67;100.00;-18261.53;4985957;28;20034;-87
2023/04/17 02:53:00;;;;;;;89.32;54.40;;;;;;;8.66;100.00;-18261.13;4984997;28;20141;-88
2023/04/17 02:55:26;;;;;;;91.93;53.83;;;;;;;8.64;100.00;-18260.56;5000851;28;20061;-87
2023/04/17 02:57:51;;;;;;;88.75;52.30;;;;;;;8.63;100.00;-18260.31;4985921;28;20082;-87
2023/04/17 03:00:16;;;;;;;94.70;54.25;;;;;;;8.64;100.00;-18260.56;4985731;28;20050;-88
2023/04/17 03:02:42;;;;;;;88.80;53.70;;;;;;;8.67;100.00;-18261.53;5001342;28;20049;-87
2023/04/17 03:05:08;;;;;;;85.55;53.15;;;;;;;8.68;100.00;-18261.81;4987653;28;20039;-87
2023/04/17 03:07:33;;;;;;;95.53;54.00;;;;;;;8.66;100.00;-18261.28;4985646;28;20404;-88
2023/04/17 03:09:58;;;;;;;96.45;55.83;;;;;;;8.69;100.00;-18262.09;4999665;28;20034;-88
2023/04/17 03:12:24;;;;;;;90.80;53.13;;;;;;;8.73;100.00;-18263.19;5012317;28;20250;-88
2023/04/17 03:14:50;;;;;;;90.88;53.10;;;;;;;8.70;100.00;-18262.38;5011192;28;20034;-88
2023/04/17 03:17:15;;;;;;;98.03;55.53;;;;;;;8.65;100.00;-18261.00;5012015;28;20042;-89
2023/04/17 03:19:41;;;;;;;97.47;54.10;;;;;;;8.64;100.00;-18260.72;5009935;28;20049;-88
2023/04/17 03:22:06;;;;;;;89.90;53.10;;;;;;;8.66;100.00;-18261.28;5012924;28;20026;-88
2023/04/17 03:24:32;;;;;;;96.25;54.80;;;;;;;8.60;100.00;-18259.63;5004310;28;20034;-88
2023/04/17 03:26:58;;;;;;;93.68;53.28;;;;;;;8.55;100.00;-18258.38;4985578;28;20496;-87
2023/04/17 03:29:24;;;;;;;93.15;52.67;;;;;;;8.56;100.00;-18258.66;4984166;28;20053;-87
2023/04/17 03:31:49;;;;;;;101.60;56.50;;;;;;;8.55;100.00;-18258.25;4983261;28;20034;-88
2023/04/17 03:34:16;;;;;;;105.30;54.95;;;;;;;8.57;100.00;-18258.78;4985429;28;20156;-87
2023/04/17 03:36:41;;;;;;;96.75;56.22;;;;;;;8.50;100.00;-18257.00;4982509;28;20092;-88
2023/04/17 03:39:07;;;;;;;101.75;55.60;;;;;;;8.54;100.00;-18257.97;4986479;28;20440;-88
2023/04/17 03:41:32;;;;;;;96.43;55.78;;;;;;;8.51;100.00;-18257.28;4965386;28;20125;-87
2023/04/17 03:43:58;;;;;;;101.10;57.15;;;;;;;8.53;100.00;-18257.81;4998878;28;20109;-88
2023/04/17 03:46:23;;;;;;;106.20;59.80;;;;;;;8.53;100.00;-18257.69;4986074;28;20050;-87
2023/04/17 03:48:48;;;;;;;92.50;54.67;;;;;;;8.55;100.00;-18258.38;4983511;28;20065;-88
2023/04/17 03:51:15;;;;;;;99.32;56.38;;;;;;;8.53;100.00;-18257.69;4985794;28;20501;-87
2023/04/17 03:53:40;;;;;;;99.75;60.95;;;;;;;8.52;100.00;-18257.41;4983990;28;20061;-87
2023/04/17 03:56:05;;;;;;;97.32;57.65;;;;;;;8.48;100.00;-18256.44;4982151;28;20539;-87
2023/04/17 03:58:31;;;;;;;99.43;56.78;;;;;;;8.51;100.00;-18257.28;4982705;28;20141;-87
2023/04/17 04:00:57;;;;;;;99.38;58.08;;;;;;;8.44;100.00;-18255.34;4984547;28;20045;-88
2023/04/17 04:03:23;;;;;;;102.53;57.67;;;;;;;8.40;100.00;-18254.25;4985289;28;20042;-87
2023/04/17 04:05:48;;;;;;;99.53;59.35;;;;;;;8.41;100.00;-18254.38;4982514;28;20050;-87
2023/04/17 04:08:13;;;;;;;107.68;60.05;;;;;;;8.42;100.00;-18254.78;4981357;28;20717;-87
2023/04/17 04:10:39;;;;;;;97.25;56.63;;;;;;;8.43;100.00;-18254.94;4983099;28;20133;-88
2023/04/17 04:13:04;;;;;;;103.75;58.30;;;;;;;8.39;100.00;-18253.97;4985395;28;20398;-87
2023/04/17 04:15:29;;;;;;;100.80;56.30;;;;;;;8.41;100.00;-18254.38;4982205;28;20042;-87
2023/04/17 04:17:55;;;;;;;101.88;57.90;;;;;;;8.40;100.00;-18254.09;4983345;28;20073;-88
2023/04/17 04:20:21;;;;;;;104.00;60.22;;;;;;;8.44;100.00;-18255.22;4984952;28;20042;-87
2023/04/17 04:22:47;;;;;;;100.65;58.10;;;;;;;8.44;100.00;-18255.22;4983975;28;20038;-87
2023/04/17 04:25:28;;;;;;;99.32;58.05;;;;;;;8.41;100.00;-18254.53;4962153;28;20043;-87
2023/04/17 04:27:55;;;;;;;100.15;58.08;;;;;;;8.40;100.00;-18254.09;4937223;28;20043;-86
2023/04/17 04:30:21;;;;;;;104.07;55.92;;;;;;;8.42;100.00;-18254.66;4930067;28;20047;-87
2023/04/17 04:32:46;;;;;;;99.78;57.55;;;;;;;8.39;100.00;-18253.97;4950375;28;20323;-87
2023/04/17 04:35:12;;;;;;;100.10;58.30;;;;;;;8.39;100.00;-18253.84;4952521;28;20078;-87
2023/04/17 04:37:38;;;;;;;102.43;60.20;;;;;;;8.40;100.00;-18254.09;4956786;28;20112;-87
2023/04/17 04:40:10;;;;;;;100.28;58.90;;;;;;;8.36;100.00;-18253.28;4955639;28;20043;-87
2023/04/17 04:42:36;;;;;;;97.68;57.22;;;;;;;8.35;100.00;-18252.88;4938301;28;20438;-86
2023/04/17 04:45:03;;;;;;;99.47;58.25;;;;;;;8.33;100.00;-18252.44;4947820;28;20039;-87
2023/04/17 04:47:29;;;;;;;96.30;55.97;;;;;;;8.32;100.00;-18252.19;4938163;28;20120;-87
2023/04/17 04:49:54;;;;;;;92.35;57.10;;;;;;;8.36;100.00;-18253.28;4926034;28;20065;-87
2023/04/17 04:52:20;;;;;;;92.43;56.42;;;;;;;8.37;100.00;-18253.41;4945372;28;20553;-87
2023/04/17 04:54:45;;;;;;;97.10;55.53;;;;;;;8.51;100.00;-18257.13;4994354;28;20054;-87
2023/04/17 04:57:10;;;;;;;97.78;56.95;;;;;;;8.46;100.00;-18255.75;4979862;28;20121;-87
2023/04/17 04:59:38;;;;;;;97.10;57.15;;;;;;;8.42;100.00;-18254.66;4975586;28;20046;-87
2023/04/17 05:02:04;;;;;;;92.78;55.50;;;;;;;8.48;100.00;-18256.44;4999203;28;20516;-87
2023/04/17 05:04:29;;;;;;;93.25;56.25;;;;;;;8.49;100.00;-18256.72;4994986;28;20046;-87
2023/04/17 05:06:55;;;;;;;91.82;53.38;;;;;;;8.41;100.00;-18254.38;4999046;28;20045;-87
2023/04/17 05:09:21;;;;;;;92.40;55.38;;;;;;;8.40;100.00;-18254.09;5000547;28;20050;-88
2023/04/17 05:11:46;;;;;;;94.90;57.90;;;;;;;8.41;100.00;-18254.53;4983208;28;20520;-87
2023/04/17 05:14:12;;;;;;;95.97;56.83;;;;;;;8.40;100.00;-18254.25;5001023;28;20052;-86
2023/04/17 05:16:37;;;;;;;93.50;55.80;;;;;;;8.39;100.00;-18253.97;5000170;28;20424;-86
2023/04/17 05:19:02;;;;;;;88.28;54.13;;;;;;;8.36;100.00;-18253.28;4984605;28;20042;-86
2023/04/17 05:21:28;;;;;;;92.50;55.35;;;;;;;8.36;100.00;-18253.28;5000761;28;20053;-85
2023/04/17 05:23:53;;;;;;;92.03;56.80;;;;;;;8.39;100.00;-18253.84;4982013;28;20409;-86
2023/04/17 05:26:22;;;;;;;96.90;55.10;;;;;;;8.40;100.00;-18254.09;4999492;28;20050;-86
2023/04/17 05:28:47;;;;;;;95.00;53.60;;;;;;;8.46;100.00;-18255.75;5003153;28;20536;-86
2023/04/17 05:31:13;;;;;;;90.53;54.58;;;;;;;8.47;100.00;-18256.16;4983238;28;20081;-86
2023/04/17 05:33:39;;;;;;;93.50;55.65;;;;;;;8.46;100.00;-18255.75;4981738;28;20053;-86
2023/04/17 05:36:05;;;;;;;86.65;54.00;;;;;;;8.48;100.00;-18256.44;4983228;28;20051;-87
2023/04/17 05:38:30;;;;;;;91.22;52.03;;;;;;;8.47;100.00;-18256.16;4980733;28;20046;-86
2023/04/17 05:40:56;;;;;;;92.40;57.45;;;;;;;8.49;100.00;-18256.59;4984280;28;21251;-86
2023/04/17 05:43:21;;;;;;;87.95;52.25;;;;;;;8.50;100.00;-18256.88;4984923;28;20034;-86
2023/04/17 05:45:47;;;;;;;87.78;54.22;;;;;;;8.52;100.00;-18257.56;4982856;28;20249;-86
2023/04/17 05:48:13;;;;;;;90.53;53.90;;;;;;;8.52;100.00;-18257.56;4983821;28;20110;-86
2023/04/17 05:50:38;;;;;;;85.53;54.63;;;;;;;8.59;100.00;-18259.34;4985094;28;20122;-86
2023/04/17 05:53:04;;;;;;;85.07;51.38;;;;;;;8.57;100.00;-18258.94;4988386;28;20074;-86
2023/04/17 05:55:29;;;;;;;91.40;55.95;;;;;;;8.54;100.00;-18258.09;4988275;28;20408;-86
2023/04/17 05:57:55;;;;;;;82.38;51.15;;;;;;;8.56;100.00;-18258.50;4985233;28;20047;-86
2023/04/17 06:00:21;;;;;;;89.68;53.42;;;;;;;8.58;100.00;-18259.06;4984362;28;20117;-86
2023/04/17 06:02:47;;;;;;;89.78;52.67;;;;;;;8.59;100.00;-18259.34;4985817;28;20537;-86
2023/04/17 06:05:12;;;;;;;87.70;54.22;;;;;;;8.54;100.00;-18258.09;4987297;28;20045;-86
2023/04/17 06:07:39;;;;;;;86.03;53.13;;;;;;;8.60;100.00;-18259.63;4985823;28;20050;-86
2023/04/17 06:10:05;;;;;;;87.65;51.85;;;;;;;8.64;100.00;-18260.72;4985738;28;20162;-86
2023/04/17 06:12:31;;;;;;;82.45;53.08;;;;;;;8.65;100.00;-18261.00;4986457;28;20042;-86
2023/04/17 06:14:56;;;;;;;83.80;53.13;;;;;;;8.60;100.00;-18259.63;4985089;28;20041;-86
2023/04/17 06:17:22;;;;;;;86.65;53.85;;;;;;;8.60;100.00;-18259.63;4986867;28;20441;-86
2023/04/17 06:19:47;;;;;;;83.85;51.38;;;;;;;8.63;100.00;-18260.44;4984706;28;20046;-86
2023/04/17 06:22:12;;;;;;;88.53;53.05;;;;;;;8.69;100.00;-18262.09;4985580;28;20129;-86
2023/04/17 06:24:38;;;;;;;85.95;52.40;;;;;;;8.71;100.00;-18262.63;4999748;28;20054;-86
2023/04/17 06:27:03;;;;;;;82.45;50.90;;;;;;;8.72;100.00;-18262.78;4986882;28;20225;-86
2023/04/17 06:29:29;;;;;;;85.05;53.13;;;;;;;8.72;100.00;-18262.91;4987655;28;20038;-86
2023/04/17 06:31:55;;;;;;;87.13;54.45;;;;;;;8.71;100.00;-18262.63;4986530;28;20057;-86
2023/04/17 06:34:20;;;;;;;84.15;53.30;;;;;;;8.78;100.00;-18264.56;4987171;28;20038;-86
2023/04/17 06:36:46;;;;;;;85.80;52.58;;;;;;;8.77;100.00;-18264.28;4983527;28;20549;-86
2023/04/17 06:39:12;;;;;;;89.47;53.90;;;;;;;8.81;100.00;-18265.25;4985152;28;20095;-86
2023/04/17 06:41:37;;;;;;;86.13;54.08;;;;;;;8.92;100.00;-18268.16;4985554;28;20045;-85
2023/04/17 06:44:02;;;;;;;86.47;51.75;;;;;;;8.99;100.00;-18270.06;4989928;28;20046;-86
2023/04/17 06:46:28;;;;;;;80.85;52.25;;;;;;;8.96;100.00;-18269.25;4984228;28;20049;-86
2023/04/17 06:48:56;;;;;;;83.65;54.08;;;;;;;8.96;100.00;-18269.38;4984922;28;20112;-86
2023/04/17 06:51:23;;;;;;;79.38;51.00;;;;;;;9.01;100.00;-18270.63;4985931;28;20068;-85
2023/04/17 06:53:49;;;;;;;79.45;48.65;;;;;;;9.04;100.00;-18271.44;4983097;28;20485;-85
2023/04/17 06:56:14;;;;;;;79.07;50.30;;;;;;;9.06;100.00;-18271.84;4985652;28;20053;-86
2023/04/17 06:58:43;;;;;;;78.68;49.55;;;;;;;9.06;100.00;-18272.00;4984137;28;20042;-86
2023/04/17 07:01:12;;;;;;;79.68;49.78;;;;;;;9.16;100.00;-18274.75;4984100;28;20042;-85
2023/04/17 07:03:39;;;;;;;82.28;51.05;;;;;;;9.25;100.00;-18277.09;4985032;28;20054;-85
2023/04/17 07:06:05;;;;;;;82.03;49.13;;;;;;;9.27;100.00;-18277.78;4986827;28;20046;-85
2023/04/17 07:08:30;;;;;;;80.97;49.30;;;;;;;9.35;100.00;-18279.69;4999848;28;20072;-86
2023/04/17 07:10:56;;;;;;;79.65;51.03;;;;;;;9.38;100.00;-18280.66;4984974;28;20560;-86
2023/04/17 07:13:21;;;;;;;75.15;51.95;;;;;;;9.39;100.00;-18280.94;4985780;28;20245;-86
2023/04/17 07:15:52;;;;;;;81.18;50.83;;;;;;;9.43;100.00;-18282.03;4984828;28;20053;-86
2023/04/17 07:18:17;;;;;;;74.35;47.35;;;;;;;9.44;100.00;-18282.19;4985752;28;20271;-86
2023/04/17 07:20:43;;;;;;;71.50;47.58;;;;;;;9.50;100.00;-18283.81;4985387;28;20039;-86
2023/04/17 07:23:08;;;;;;;72.97;46.33;;;;;;;9.53;100.00;-18284.50;4985807;28;20356;-86
2023/04/17 07:25:33;;;;;;;71.28;45.70;;;;;;;9.53;100.00;-18284.66;4972675;28;20336;-86
2023/04/17 07:27:59;;;;;;;69.63;45.58;;;;;;;9.64;100.00;-18287.53;4985187;28;20180;-86
2023/04/17 07:30:24;;;;;;;67.53;44.85;;;;;;;9.74;100.00;-18290.28;4986242;28;20042;-86
2023/04/17 07:32:49;;;;;;;67.45;43.90;;;;;;;9.78;100.00;-18291.25;4985753;28;20161;-86
2023/04/17 07:35:15;;;;;;;64.72;42.28;;;;;;;9.86;100.00;-18293.44;4985636;28;20050;-85
2023/04/17 07:37:40;;;;;;;64.88;43.55;;;;;;;9.85;100.00;-18293.19;4983255;28;20073;-86
2023/04/17 07:40:08;;;;;;;62.83;42.47;;;;;;;9.91;100.00;-18294.97;4983935;28;20046;-86
2023/04/17 07:42:33;;;;;;;64.05;41.97;;;;;;;10.05;100.00;-18298.53;4985536;28;20046;-86
2023/04/17 07:44:59;;;;;;;58.00;39.50;;;;;;;10.06;100.00;-18298.94;4984370;28;20048;-86
2023/04/17 07:47:24;;;;;;;56.83;39.08;;;;;;;10.08;100.00;-18299.50;4984141;28;20046;-86
2023/04/17 07:49:50;;;;;;;56.42;38.80;;;;;;;10.08;100.00;-18299.50;4984893;28;20046;-85
2023/04/17 07:52:16;;;;;;;52.90;38.55;;;;;;;10.21;100.00;-18302.94;4993222;28;20046;-85
2023/04/17 07:54:42;;;;;;;56.10;38.72;;;;;;;10.28;100.00;-18304.72;5008299;28;20058;-85
2023/04/17 07:57:08;;;;;;;54.05;37.88;;;;;;;10.26;100.00;-18304.16;4995180;28;20038;-84
2023/04/17 07:59:33;;;;;;;54.65;37.63;;;;;;;10.32;100.00;-18305.81;4996336;28;20485;-85
2023/04/17 08:01:58;;;;;;;54.45;37.95;;;;;;;10.29;100.00;-18305.00;4996217;28;20509;-85
2023/04/17 08:04:24;;;;;;;53.40;36.80;;;;;;;10.24;100.00;-18303.63;5000089;28;20103;-85
2023/04/17 08:06:50;;;;;;;51.97;36.53;;;;;;;10.30;100.00;-18305.28;4982722;28;20046;-85
2023/04/17 08:09:15;;;;;;;46.13;34.17;;;;;;;10.34;100.00;-18306.38;4986558;28;20121;-85
2023/04/17 08:11:42;;;;;;;48.95;33.63;;;;;;;10.36;100.00;-18306.94;4987143;28;20062;-85
2023/04/17 08:14:07;;;;;;;52.35;35.50;;;;;;;10.55;100.00;-18312.16;4982531;28;20386;-85
2023/04/17 08:16:33;;;;;;;46.67;32.92;;;;;;;10.62;100.00;-18313.94;4984575;28;20125;-85
2023/04/17 08:18:58;;;;;;;47.05;33.72;;;;;;;10.69;100.00;-18315.84;4984361;28;20042;-85
2023/04/17 08:21:23;;;;;;;48.03;35.20;;;;;;;10.82;100.00;-18319.28;4985133;28;20046;-85
2023/04/17 08:23:49;;;;;;;42.85;32.25;;;;;;;10.71;100.00;-18316.41;4984082;28;20053;-85
2023/04/17 08:26:17;;;;;;;46.47;31.23;;;;;;;10.65;100.00;-18314.63;4985572;28;20057;-84
2023/04/17 08:28:43;;;;;;;44.65;30.55;;;;;;;10.73;100.00;-18316.81;4983642;28;20058;-86
2023/04/17 08:31:09;;;;;;;42.30;29.95;;;;;;;10.85;100.00;-18320.13;4984104;28;20543;-85
2023/04/17 08:33:35;;;;;;;41.88;29.98;;;;;;;10.82;100.00;-18319.44;4984564;28;20054;-85
2023/04/17 08:36:00;;;;;;;38.05;27.42;;;;;;;10.95;100.00;-18322.88;4984018;28;20434;-85
2023/04/17 08:38:28;;;;;;;40.05;28.13;;;;;;;11.06;100.00;-18325.75;4986044;28;20054;-85
2023/04/17 08:40:59;;;;;;;38.72;28.23;;;;;;;11.19;100.00;-18329.19;4983106;28;20485;-85
2023/04/17 08:43:28;;;;;;;36.30;27.60;;;;;;;11.32;100.00;-18332.75;4984532;28;20046;-84
2023/04/17 08:45:54;;;;;;;40.70;26.43;;;;;;;11.41;100.00;-18335.22;4983971;28;20066;-85
2023/04/17 08:48:21;;;;;;;36.38;25.15;;;;;;;11.60;100.00;-18340.16;4985869;28;20073;-85
2023/04/17 08:50:48;;;;;;;35.00;25.63;;;;;;;11.70;100.00;-18342.91;4982996;28;20051;-85
2023/04/17 08:53:15;;;;;;;35.78;26.38;;;;;;;11.84;100.00;-18346.75;4984972;28;20485;-85
2023/04/17 08:55:41;;;;;;;33.28;24.58;;;;;;;11.77;100.00;-18344.84;4983901;28;20049;-85
2023/04/17 08:58:07;;;;;;;30.90;23.50;;;;;;;11.80;100.00;-18345.66;4983187;28;20046;-85
2023/04/17 09:00:38;;;;;;;31.83;24.10;;;;;;;11.90;100.00;-18348.41;4984512;28;20045;-85
2023/04/17 09:03:07;;;;;;;33.17;24.63;;;;;;;12.10;100.00;-18353.63;5000412;28;20053;-85
2023/04/17 09:05:33;;;;;;;;;;;;;;;12.30;100.00;-18359.09;4967534;28;20049;-85
2023/04/17 09:08:14;;;;;;;31.63;21.83;;;;;;;12.34;100.00;-18360.19;4984951;28;19918;-85
2023/04/17 09:10:45;;;;;;;33.47;22.20;;;;;;;12.27;100.00;-18358.28;4984167;28;20459;-85
2023/04/17 09:13:15;;;;;;;25.08;19.60;;;;;;;12.16;100.00;-18355.25;4984467;28;20050;-85
2023/04/17 09:15:41;;;;;;;25.17;20.52;;;;;;;12.27;100.00;-18358.28;4984754;28;20042;-85
2023/04/17 09:18:26;;;;;;;26.58;20.10;;;;;;;12.31;100.00;-18359.38;4981905;28;20134;-85
2023/04/17 09:20:51;;;;;;;32.25;20.88;;;;;;;12.37;100.00;-18361.03;4982777;28;20141;-85
2023/04/17 09:23:17;;;;;;;26.60;17.40;;;;;;;12.36;100.00;-18360.75;4983731;28;20133;-85
2023/04/17 09:25:43;;;;;;;26.25;19.92;;;;;;;12.38;100.00;-18361.31;4987657;28;20279;-85
2023/04/17 09:28:11;;;;;;;26.67;20.55;;;;;;;12.45;100.00;-18363.09;4987787;28;20042;-84
2023/04/17 09:30:38;;;;;;;25.88;20.10;;;;;;;12.42;100.00;-18362.41;5002320;28;20531;-84
2023/04/17 09:33:04;;;;;;;26.95;19.13;;;;;;;12.51;100.00;-18364.59;4987256;28;20078;-85
2023/04/17 09:35:30;;;;;;;26.65;19.40;;;;;;;12.46;100.00;-18363.34;4986782;28;20104;-85
2023/04/17 09:37:58;;;;;;;24.85;19.02;;;;;;;12.52;100.00;-18364.88;4986785;28;20050;-85
2023/04/17 09:40:24;;;;;;;24.90;18.63;;;;;;;12.59;100.00;-18366.78;4986958;28;20128;-85
2023/04/17 09:43:01;;;;;;;24.55;17.40;;;;;;;12.69;100.00;-18369.53;4985802;28;20050;-85
2023/04/17 09:45:39;;;;;;;21.85;16.90;;;;;;;12.69;100.00;-18369.53;4978620;28;20068;-85
2023/04/17 09:48:12;;;;;;;24.65;18.42;;;;;;;12.69;100.00;-18369.53;4986438;28;20046;-85
2023/04/17 09:50:38;;;;;;;26.00;18.25;;;;;;;12.76;100.00;-18371.31;4986890;28;20049;-85
2023/04/17 09:53:04;;;;;;;23.00;17.73;;;;;;;12.83;100.00;-18373.38;4986301;28;20188;-85
2023/04/17 09:55:31;;;;;;;22.92;17.33;;;;;;;12.88;100.00;-18374.75;4987107;28;20193;-85
2023/04/17 09:58:01;;;;;;;22.10;15.77;;;;;;;12.99;100.00;-18377.47;4986811;28;20054;-85
2023/04/17 10:00:28;;;;;;;21.17;16.02;;;;;;;13.08;100.00;-18379.94;4987529;28;20048;-85
2023/04/17 10:02:56;;;;;;;21.05;15.82;;;;;;;13.15;100.00;-18381.88;4987445;28;20039;-85
2023/04/17 10:05:24;;;;;;;22.17;17.40;;;;;;;13.10;100.00;-18380.50;4987386;28;20053;-85
2023/04/17 10:07:50;;;;;;;23.52;17.80;;;;;;;13.06;100.00;-18379.53;4985187;28;20042;-85
2023/04/17 10:10:32;;;;;;;22.95;16.73;;;;;;;13.14;100.00;-18381.47;5003727;28;20148;-85
2023/04/17 10:13:11;;;;;;;24.33;17.17;;;;;;;13.26;100.00;-18384.75;4987480;28;20042;-85
2023/04/17 10:15:37;;;;;;;22.10;15.00;;;;;;;13.38;100.00;-18387.91;4986021;28;20030;-85
2023/04/17 10:18:22;;;;;;;21.23;15.98;;;;;;;13.42;100.00;-18389.00;4983938;28;20587;-85
2023/04/17 10:20:49;;;;;;;23.55;16.92;;;;;;;13.61;100.00;-18394.22;4984400;28;20608;-85
2023/04/17 10:23:30;;;;;;;21.98;16.08;;;;;;;13.84;100.00;-18400.38;4985156;28;21723;-85
2023/04/17 10:26:26;;;;;;;20.88;15.65;;;;;;;14.00;100.00;-18404.63;4984770;28;20436;-85
2023/04/17 10:28:53;;;;;;;22.88;15.68;;;;;;;14.05;100.00;-18406.00;4983862;28;20046;-85
2023/04/17 10:31:19;;;;;;;21.92;15.52;;;;;;;14.01;100.00;-18404.88;4985883;28;20528;-85
2023/04/17 10:33:53;;;;;;;21.50;15.98;;;;;;;13.88;100.00;-18401.31;4986248;28;20084;-85
2023/04/17 10:36:36;;;;;;;20.00;16.33;;;;;;;13.92;100.00;-18402.41;4986952;28;20050;-85
2023/04/17 10:39:12;;;;;;;18.45;15.18;;;;;;;14.01;100.00;-18404.88;4985801;28;20046;-85
2023/04/17 10:42:04;;;;;;;21.88;14.15;;;;;;;14.41;100.00;-18415.56;4985768;28;20497;-85
2023/04/17 10:44:38;;;;;;;19.38;13.95;;;;;;;14.64;100.00;-18421.88;4995215;28;20541;-85
2023/04/17 10:47:17;;;;;;;20.02;13.27;;;;;;;14.81;100.00;-18426.38;4986045;28;20061;-85
2023/04/17 10:49:59;;;;;;;19.45;13.43;;;;;;;14.94;100.00;-18429.69;5002896;28;20042;-85
2023/04/17 10:52:39;;;;;;;18.83;13.27;;;;;;;15.01;100.00;-18431.72;4999010;28;20046;-85
2023/04/17 10:55:06;;;;;;;19.30;13.07;;;;;;;14.90;100.00;-18428.72;4985074;28;20038;-85
2023/04/17 10:57:52;;;;;;;18.70;13.18;;;;;;;14.81;100.00;-18426.25;4986814;28;20057;-85
2023/04/17 11:00:18;;;;;;;17.23;13.65;;;;;;;14.82;100.00;-18426.53;4992439;28;20053;-85
2023/04/17 11:02:44;;;;;;;15.35;12.30;;;;;;;14.89;100.00;-18428.44;5004798;28;20125;-85
2023/04/17 11:05:11;;;;;;;16.83;12.43;;;;;;;14.85;100.00;-18427.47;4988927;28;20436;-85